Provo Municipal Airport
KPVU : now visible

Airfield :











YOU CAN JOIN US ON...

 
LOGIN :

Register | Disclaimer

   EN    FR    IT 

 









Legend :    VFR   Marginal VFR   IFR   Intensive IFR   Very Intensive IFR
Visi :
Ceiling :
>= 8 km
>= 3000ft
5 to 8 km
1000 to 3000 ft
1500m to 5 km
500 to 1000 ft
800 to 1500m
200 to 500 ft
< 800m
< 200 ft
Symbols :   Thunderstorms  Fog  Heavy snow  Heavy precipitations  Wind > 20 kt






- Airport Elevation : 4497 ft


KPVU - Provo Municipal

CURRENT METAR :
  • 110456Z AUTO 00000KT 10SM CLR M03/M04 A3029 RMK AO2 SLP278 T10281039 FZRANO

EXPIRED METARs :
  • 110356Z AUTO 00000KT 10SM CLR M02/M03 A3030 RMK AO2 SLP283 T10171033 FZRANO
  • 110256Z 18004KT 10SM CLR M01/M02 A3030 RMK AO2 SLP290 T10061022 50002
  • 110156Z 00000KT 10SM CLR 01/M02 A3031 RMK AO2 SLP291 T00061022

TAF KPVU
Valid from the 11 at 00:00 until the 12 at 00:00 UTC


102320Z 1100/1124 VRB03KT P6SM SCT200
FM111500 VRB03KT P6SM SCT100 OVC150
FM112000 28005KT P6SM SCT060 OVC080



MET'MAP, your aeronautical weather chart ! - Copyright ORBIFLY December 2007 - Disclaimer

ORBIFLY MET'MAP TEAM :

Programming & Development : Alexandra Zaïnal
Concept & original design : Baudouin d'Aumeries
Assistance for programming : Marc-Olivier Méhu
Technical & hardware support : Manuel Goepfert

Contact : metmap@orbifly.com




SOURCES & CREDITS :

   NOAA       Earth
Advisory